Impacts METAR Board INFO
IDs:

KEWR - Newark Intl, NJ, US

Updated at: 0944 UTC 20 Nov 2017
Potential Impact None Slight Moderate High
Time19/21Z 19/22Z 19/23Z 20/00Z 20/01Z 20/02Z 20/03Z 20/04Z 20/05Z 20/06Z 20/07Z 20/08Z 20/09Z
VIS10 10 10 10 10 10 10 10 10 10 10 10 10
CIG-- 55 60 70 60 45 60 55 85 -- 47 70 --
CoverSCTBKNBKNBKNOVCOVCBKNBKNBKNSCTBKNOVCFEW
FltCatVFRVFRVFRVFRVFRVFRVFRVFRVFRVFRVFRVFRVFR
WX---------RA-RA-RA-RA-----SN----
WDir320300310290260290260320270290260270260
WSpd17 10 10 8 11 7 13 15 12 17 14 11 13
WGst24 21 18 15 18 17 19 24 -- 22 -- -- --
Raw hourly METARs
KEWR 192051Z 32017G24KT 10SM SCT050 09/M03 A2961 RMK AO2 PK WND 30027/1959 SLP026 T00891033 53035
KEWR 192151Z 30010G21KT 10SM BKN055 08/M04 A2964 RMK AO2 SLP036 T00831039
KEWR 192251Z 31010G18KT 10SM BKN060 08/M04 A2967 RMK AO2 SLP048 T00831039
KEWR 192351Z 29008G15KT 10SM BKN070 08/M04 A2970 RMK AO2 SLP056 T00831039 10122 20083 51030
KEWR 200051Z 26011G18KT 10SM -RA FEW045 OVC060 08/M01 A2973 RMK AO2 RAB24 SLP065 P0000 T00781011
KEWR 200151Z 29007G17KT 10SM -RA SCT037 BKN045 OVC055 05/01 A2975 RMK AO2 PK WND 30031/0129 SLP073 P0000 T00500011
KEWR 200251Z 26013G19KT 10SM -RA FEW045 BKN060 BKN080 06/02 A2977 RMK AO2 RAE06B49 SLP081 P0000 60000 T00560017 51025
KEWR 200351Z 32015G24KT 10SM -RA FEW041 BKN055 BKN070 05/00 A2980 RMK AO2 RAE05B49 SLP091 P0000 T00500000
KEWR 200451Z 27012KT 10SM FEW055 SCT070 BKN085 04/M02 A2981 RMK AO2 PK WND 28026/0405 RAE11 SLP095 P0000 T00441017 401500039
KEWR 200551Z 29017G22KT 10SM FEW070 SCT085 04/M02 A2983 RMK AO2 SLP102 60000 T00441017 10083 20039 51021
KEWR 200651Z 26014KT 10SM -SN FEW035 BKN047 BKN075 03/M02 A2986 RMK AO2 RAB0556E33SNB02E14B33 SLP111 P0000 T00281017
KEWR 200751Z 27011KT 10SM SCT060 OVC070 03/M03 A2989 RMK AO2 SNE01 SLP121 P0000 T00331028
KEWR 200851Z 26013KT 10SM FEW060 FEW075 03/M04 A2992 RMK AO2 SLP130 60000 T00281039 51028